sensor_id;sensor_type;location;lat;lon;timestamp;temperature;humidity
6986;DHT22;3533;51.246;6.850;2022-07-29T00:01:50;24.70;44.40
6986;DHT22;3533;51.246;6.850;2022-07-29T00:04:18;24.60;44.30
6986;DHT22;3533;51.246;6.850;2022-07-29T00:06:44;24.60;44.30
6986;DHT22;3533;51.246;6.850;2022-07-29T00:09:10;24.60;44.30
6986;DHT22;3533;51.246;6.850;2022-07-29T00:11:36;24.60;44.20
6986;DHT22;3533;51.246;6.850;2022-07-29T00:14:02;24.70;44.40
6986;DHT22;3533;51.246;6.850;2022-07-29T00:16:28;24.60;44.20
6986;DHT22;3533;51.246;6.850;2022-07-29T00:18:54;24.60;44.30
6986;DHT22;3533;51.246;6.850;2022-07-29T00:21:21;24.60;44.30
6986;DHT22;3533;51.246;6.850;2022-07-29T00:23:46;24.60;44.30
6986;DHT22;3533;51.246;6.850;2022-07-29T00:26:12;24.60;44.30
6986;DHT22;3533;51.246;6.850;2022-07-29T00:28:37;24.60;44.30
6986;DHT22;3533;51.246;6.850;2022-07-29T00:31:03;24.60;44.30
6986;DHT22;3533;51.246;6.850;2022-07-29T00:33:29;24.60;44.30
6986;DHT22;3533;51.246;6.850;2022-07-29T00:35:55;24.60;44.30
6986;DHT22;3533;51.246;6.850;2022-07-29T00:38:22;24.60;44.30
6986;DHT22;3533;51.246;6.850;2022-07-29T00:40:49;24.60;44.20
6986;DHT22;3533;51.246;6.850;2022-07-29T00:43:19;24.60;44.30
6986;DHT22;3533;51.246;6.850;2022-07-29T00:45:44;24.60;44.30
6986;DHT22;3533;51.246;6.850;2022-07-29T00:48:10;24.60;44.30
6986;DHT22;3533;51.246;6.850;2022-07-29T00:50:36;24.60;44.20
6986;DHT22;3533;51.246;6.850;2022-07-29T00:53:08;24.60;44.30
6986;DHT22;3533;51.246;6.850;2022-07-29T00:55:35;24.60;44.20
6986;DHT22;3533;51.246;6.850;2022-07-29T00:58:01;24.70;44.30
6986;DHT22;3533;51.246;6.850;2022-07-29T01:00:29;24.70;44.40
6986;DHT22;3533;51.246;6.850;2022-07-29T01:02:58;24.60;44.20
6986;DHT22;3533;51.246;6.850;2022-07-29T01:05:25;24.60;44.20
6986;DHT22;3533;51.246;6.850;2022-07-29T01:07:54;24.60;44.20
6986;DHT22;3533;51.246;6.850;2022-07-29T01:10:22;24.60;44.20
6986;DHT22;3533;51.246;6.850;2022-07-29T01:12:50;24.60;44.30
6986;DHT22;3533;51.246;6.850;2022-07-29T01:15:16;24.60;44.30
6986;DHT22;3533;51.246;6.850;2022-07-29T01:18:03;24.60;44.30
6986;DHT22;3533;51.246;6.850;2022-07-29T01:23:34;24.60;44.30
6986;DHT22;3533;51.246;6.850;2022-07-29T01:37:21;24.60;44.30
6986;DHT22;3533;51.246;6.850;2022-07-29T01:39:49;24.60;44.30
6986;DHT22;3533;51.246;6.850;2022-07-29T01:42:32;24.60;44.20
6986;DHT22;3533;51.246;6.850;2022-07-29T01:47:45;24.60;44.30
6986;DHT22;3533;51.246;6.850;2022-07-29T01:50:16;24.60;44.20
6986;DHT22;3533;51.246;6.850;2022-07-29T01:52:54;24.60;44.30
6986;DHT22;3533;51.246;6.850;2022-07-29T01:55:24;24.60;44.20
6986;DHT22;3533;51.246;6.850;2022-07-29T01:57:51;24.60;44.20
6986;DHT22;3533;51.246;6.850;2022-07-29T02:00:17;24.60;44.20
6986;DHT22;3533;51.246;6.850;2022-07-29T02:02:45;24.60;44.20
6986;DHT22;3533;51.246;6.850;2022-07-29T02:05:17;24.60;44.20
6986;DHT22;3533;51.246;6.850;2022-07-29T02:07:46;24.60;44.20
6986;DHT22;3533;51.246;6.850;2022-07-29T02:10:13;24.60;44.20
6986;DHT22;3533;51.246;6.850;2022-07-29T02:12:41;24.60;44.20
6986;DHT22;3533;51.246;6.850;2022-07-29T02:15:09;24.60;44.20
6986;DHT22;3533;51.246;6.850;2022-07-29T02:17:43;24.60;44.30
6986;DHT22;3533;51.246;6.850;2022-07-29T02:20:13;24.60;44.20
6986;DHT22;3533;51.246;6.850;2022-07-29T02:22:41;24.60;44.20
6986;DHT22;3533;51.246;6.850;2022-07-29T02:25:08;24.60;44.20
6986;DHT22;3533;51.246;6.850;2022-07-29T02:27:35;24.60;44.20
6986;DHT22;3533;51.246;6.850;2022-07-29T02:30:04;24.60;44.20
6986;DHT22;3533;51.246;6.850;2022-07-29T02:32:32;24.60;44.20
6986;DHT22;3533;51.246;6.850;2022-07-29T02:35:00;24.60;44.20
6986;DHT22;3533;51.246;6.850;2022-07-29T02:37:27;24.60;45.20
6986;DHT22;3533;51.246;6.850;2022-07-29T02:39:55;24.60;44.30
6986;DHT22;3533;51.246;6.850;2022-07-29T02:42:24;24.60;44.30
6986;DHT22;3533;51.246;6.850;2022-07-29T02:44:52;24.60;44.20
6986;DHT22;3533;51.246;6.850;2022-07-29T02:47:25;24.60;44.40
6986;DHT22;3533;51.246;6.850;2022-07-29T02:57:54;24.60;44.20
6986;DHT22;3533;51.246;6.850;2022-07-29T03:00:27;24.60;44.20
6986;DHT22;3533;51.246;6.850;2022-07-29T03:02:56;24.60;44.30
6986;DHT22;3533;51.246;6.850;2022-07-29T03:05:24;24.50;44.20
6986;DHT22;3533;51.246;6.850;2022-07-29T03:07:55;24.60;44.20
6986;DHT22;3533;51.246;6.850;2022-07-29T03:10:23;24.60;44.30
6986;DHT22;3533;51.246;6.850;2022-07-29T03:12:48;24.50;44.20
6986;DHT22;3533;51.246;6.850;2022-07-29T03:15:15;24.60;44.20
6986;DHT22;3533;51.246;6.850;2022-07-29T03:17:40;24.60;44.20
6986;DHT22;3533;51.246;6.850;2022-07-29T03:20:07;24.60;44.20
6986;DHT22;3533;51.246;6.850;2022-07-29T03:22:41;24.60;44.20
6986;DHT22;3533;51.246;6.850;2022-07-29T03:25:15;24.60;44.20
6986;DHT22;3533;51.246;6.850;2022-07-29T03:27:41;24.60;44.20
6986;DHT22;3533;51.246;6.850;2022-07-29T03:30:08;24.60;44.20
6986;DHT22;3533;51.246;6.850;2022-07-29T03:32:36;24.60;44.20
6986;DHT22;3533;51.246;6.850;2022-07-29T03:35:02;24.60;44.10
6986;DHT22;3533;51.246;6.850;2022-07-29T03:37:28;24.50;44.10
6986;DHT22;3533;51.246;6.850;2022-07-29T03:39:57;24.50;44.20
6986;DHT22;3533;51.246;6.850;2022-07-29T03:42:29;24.60;44.20
6986;DHT22;3533;51.246;6.850;2022-07-29T03:44:58;24.60;44.10
6986;DHT22;3533;51.246;6.850;2022-07-29T03:47:26;24.50;44.10
6986;DHT22;3533;51.246;6.850;2022-07-29T03:49:56;24.50;44.10
6986;DHT22;3533;51.246;6.850;2022-07-29T03:52:22;24.50;44.10
6986;DHT22;3533;51.246;6.850;2022-07-29T03:54:48;24.60;44.10
6986;DHT22;3533;51.246;6.850;2022-07-29T03:57:15;24.60;44.10
6986;DHT22;3533;51.246;6.850;2022-07-29T03:59:42;24.50;44.10
6986;DHT22;3533;51.246;6.850;2022-07-29T04:02:09;24.50;44.10
6986;DHT22;3533;51.246;6.850;2022-07-29T04:04:36;24.50;44.80
6986;DHT22;3533;51.246;6.850;2022-07-29T04:07:03;24.50;44.00
6986;DHT22;3533;51.246;6.850;2022-07-29T04:09:29;24.50;44.10
6986;DHT22;3533;51.246;6.850;2022-07-29T04:11:55;24.50;44.10
6986;DHT22;3533;51.246;6.850;2022-07-29T04:14:20;24.50;44.10
6986;DHT22;3533;51.246;6.850;2022-07-29T04:16:47;24.50;44.80
6986;DHT22;3533;51.246;6.850;2022-07-29T04:19:13;24.50;44.00
6986;DHT22;3533;51.246;6.850;2022-07-29T04:21:39;24.50;44.00
6986;DHT22;3533;51.246;6.850;2022-07-29T04:24:07;24.50;44.10
6986;DHT22;3533;51.246;6.850;2022-07-29T04:26:33;24.50;44.00
6986;DHT22;3533;51.246;6.850;2022-07-29T04:28:59;24.50;44.10
6986;DHT22;3533;51.246;6.850;2022-07-29T04:31:24;24.50;44.00
6986;DHT22;3533;51.246;6.850;2022-07-29T04:33:50;24.50;44.00
6986;DHT22;3533;51.246;6.850;2022-07-29T04:36:16;24.50;44.10
6986;DHT22;3533;51.246;6.850;2022-07-29T04:38:42;24.50;44.10
6986;DHT22;3533;51.246;6.850;2022-07-29T04:41:08;24.50;44.00
6986;DHT22;3533;51.246;6.850;2022-07-29T04:43:35;24.50;44.00
6986;DHT22;3533;51.246;6.850;2022-07-29T04:46:01;24.50;44.00
6986;DHT22;3533;51.246;6.850;2022-07-29T04:48:27;24.50;44.00
6986;DHT22;3533;51.246;6.850;2022-07-29T04:50:53;24.50;44.00
6986;DHT22;3533;51.246;6.850;2022-07-29T04:53:19;24.50;44.00
6986;DHT22;3533;51.246;6.850;2022-07-29T04:55:44;24.50;44.00
6986;DHT22;3533;51.246;6.850;2022-07-29T04:58:11;24.50;44.00
6986;DHT22;3533;51.246;6.850;2022-07-29T05:00:36;24.50;44.00
6986;DHT22;3533;51.246;6.850;2022-07-29T05:03:03;24.50;44.00
6986;DHT22;3533;51.246;6.850;2022-07-29T05:05:29;24.50;44.00
6986;DHT22;3533;51.246;6.850;2022-07-29T05:07:54;24.50;44.00
6986;DHT22;3533;51.246;6.850;2022-07-29T05:10:20;24.50;44.00
6986;DHT22;3533;51.246;6.850;2022-07-29T05:12:46;24.50;44.10
6986;DHT22;3533;51.246;6.850;2022-07-29T05:15:12;24.50;44.00
6986;DHT22;3533;51.246;6.850;2022-07-29T05:17:38;24.50;44.00
6986;DHT22;3533;51.246;6.850;2022-07-29T05:20:05;24.50;44.00
6986;DHT22;3533;51.246;6.850;2022-07-29T05:22:31;24.50;44.10
6986;DHT22;3533;51.246;6.850;2022-07-29T05:24:56;24.50;44.00
6986;DHT22;3533;51.246;6.850;2022-07-29T05:27:22;24.50;44.00
6986;DHT22;3533;51.246;6.850;2022-07-29T05:29:48;24.50;44.00
6986;DHT22;3533;51.246;6.850;2022-07-29T05:32:13;24.50;44.00
6986;DHT22;3533;51.246;6.850;2022-07-29T05:34:40;24.50;44.00
6986;DHT22;3533;51.246;6.850;2022-07-29T05:37:05;24.50;44.10
6986;DHT22;3533;51.246;6.850;2022-07-29T05:39:31;24.50;44.10
6986;DHT22;3533;51.246;6.850;2022-07-29T05:41:56;24.50;44.10
6986;DHT22;3533;51.246;6.850;2022-07-29T05:44:22;24.50;44.10
6986;DHT22;3533;51.246;6.850;2022-07-29T05:46:48;24.50;44.10
6986;DHT22;3533;51.246;6.850;2022-07-29T05:49:14;24.50;44.00
6986;DHT22;3533;51.246;6.850;2022-07-29T05:51:40;24.50;44.10
6986;DHT22;3533;51.246;6.850;2022-07-29T05:54:06;24.50;44.10
6986;DHT22;3533;51.246;6.850;2022-07-29T05:56:31;24.50;44.10
6986;DHT22;3533;51.246;6.850;2022-07-29T05:58:57;24.50;44.10
6986;DHT22;3533;51.246;6.850;2022-07-29T06:01:24;24.50;44.10
6986;DHT22;3533;51.246;6.850;2022-07-29T06:03:50;24.50;44.10
6986;DHT22;3533;51.246;6.850;2022-07-29T06:06:15;24.50;44.10
6986;DHT22;3533;51.246;6.850;2022-07-29T06:08:41;24.50;44.10
6986;DHT22;3533;51.246;6.850;2022-07-29T06:11:07;24.50;44.10
6986;DHT22;3533;51.246;6.850;2022-07-29T06:13:34;24.50;44.10
6986;DHT22;3533;51.246;6.850;2022-07-29T06:15:59;24.50;44.10
6986;DHT22;3533;51.246;6.850;2022-07-29T06:18:25;24.50;44.10
6986;DHT22;3533;51.246;6.850;2022-07-29T06:20:52;24.50;44.10
6986;DHT22;3533;51.246;6.850;2022-07-29T06:23:20;24.50;44.10
6986;DHT22;3533;51.246;6.850;2022-07-29T06:25:46;24.50;44.10
6986;DHT22;3533;51.246;6.850;2022-07-29T06:28:12;24.50;44.10
6986;DHT22;3533;51.246;6.850;2022-07-29T06:30:38;24.50;44.10
6986;DHT22;3533;51.246;6.850;2022-07-29T06:33:04;24.50;44.90
6986;DHT22;3533;51.246;6.850;2022-07-29T06:35:33;24.50;44.20
6986;DHT22;3533;51.246;6.850;2022-07-29T06:37:58;24.50;44.20
6986;DHT22;3533;51.246;6.850;2022-07-29T06:40:24;24.50;44.10
6986;DHT22;3533;51.246;6.850;2022-07-29T06:43:08;24.50;44.10
6986;DHT22;3533;51.246;6.850;2022-07-29T06:45:35;24.50;44.20
6986;DHT22;3533;51.246;6.850;2022-07-29T06:48:00;24.50;44.90
6986;DHT22;3533;51.246;6.850;2022-07-29T06:50:26;24.50;44.20
6986;DHT22;3533;51.246;6.850;2022-07-29T06:52:52;24.50;44.20
6986;DHT22;3533;51.246;6.850;2022-07-29T06:55:17;24.50;44.20
6986;DHT22;3533;51.246;6.850;2022-07-29T06:57:45;24.50;44.20
6986;DHT22;3533;51.246;6.850;2022-07-29T07:00:12;24.50;44.20
6986;DHT22;3533;51.246;6.850;2022-07-29T07:02:37;24.50;44.20
6986;DHT22;3533;51.246;6.850;2022-07-29T07:05:03;24.50;44.20
6986;DHT22;3533;51.246;6.850;2022-07-29T07:07:30;24.50;44.20
6986;DHT22;3533;51.246;6.850;2022-07-29T07:09:56;24.50;44.20
6986;DHT22;3533;51.246;6.850;2022-07-29T07:12:22;24.50;44.20
6986;DHT22;3533;51.246;6.850;2022-07-29T07:14:48;24.50;44.20
6986;DHT22;3533;51.246;6.850;2022-07-29T07:17:13;24.50;44.20
6986;DHT22;3533;51.246;6.850;2022-07-29T07:19:39;24.50;44.20
6986;DHT22;3533;51.246;6.850;2022-07-29T07:22:05;24.50;44.20
6986;DHT22;3533;51.246;6.850;2022-07-29T07:24:31;24.50;44.20
6986;DHT22;3533;51.246;6.850;2022-07-29T07:26:56;24.50;44.10
6986;DHT22;3533;51.246;6.850;2022-07-29T07:29:23;24.50;44.20
6986;DHT22;3533;51.246;6.850;2022-07-29T07:31:48;24.50;44.10
6986;DHT22;3533;51.246;6.850;2022-07-29T07:34:15;24.50;44.20
6986;DHT22;3533;51.246;6.850;2022-07-29T07:36:41;24.50;44.20
6986;DHT22;3533;51.246;6.850;2022-07-29T07:39:07;24.50;45.00
6986;DHT22;3533;51.246;6.850;2022-07-29T07:41:32;24.50;44.20
6986;DHT22;3533;51.246;6.850;2022-07-29T07:43:58;24.50;44.20
6986;DHT22;3533;51.246;6.850;2022-07-29T07:46:24;24.50;44.20
6986;DHT22;3533;51.246;6.850;2022-07-29T07:48:49;24.50;44.20
6986;DHT22;3533;51.246;6.850;2022-07-29T07:51:17;24.50;44.20
6986;DHT22;3533;51.246;6.850;2022-07-29T07:53:43;24.50;44.20
6986;DHT22;3533;51.246;6.850;2022-07-29T07:56:10;24.50;44.20
6986;DHT22;3533;51.246;6.850;2022-07-29T07:58:35;24.50;44.20
6986;DHT22;3533;51.246;6.850;2022-07-29T08:01:01;24.50;44.20
6986;DHT22;3533;51.246;6.850;2022-07-29T08:03:27;24.50;44.20
6986;DHT22;3533;51.246;6.850;2022-07-29T08:05:53;24.50;44.20
6986;DHT22;3533;51.246;6.850;2022-07-29T08:08:19;24.50;44.20
6986;DHT22;3533;51.246;6.850;2022-07-29T08:10:45;24.50;44.10
6986;DHT22;3533;51.246;6.850;2022-07-29T08:13:25;24.50;44.00
6986;DHT22;3533;51.246;6.850;2022-07-29T08:15:53;24.50;43.90
6986;DHT22;3533;51.246;6.850;2022-07-29T08:18:37;24.50;43.90
6986;DHT22;3533;51.246;6.850;2022-07-29T08:21:03;24.50;43.80
6986;DHT22;3533;51.246;6.850;2022-07-29T08:23:29;24.50;43.70
6986;DHT22;3533;51.246;6.850;2022-07-29T08:26:07;24.50;43.60
6986;DHT22;3533;51.246;6.850;2022-07-29T08:28:37;24.50;43.50
6986;DHT22;3533;51.246;6.850;2022-07-29T08:31:02;24.50;43.50
6986;DHT22;3533;51.246;6.850;2022-07-29T08:33:28;24.50;43.40
6986;DHT22;3533;51.246;6.850;2022-07-29T08:35:55;24.50;43.40
6986;DHT22;3533;51.246;6.850;2022-07-29T08:38:21;24.50;43.30
6986;DHT22;3533;51.246;6.850;2022-07-29T08:40:47;24.50;43.20
6986;DHT22;3533;51.246;6.850;2022-07-29T08:43:13;24.50;43.30
6986;DHT22;3533;51.246;6.850;2022-07-29T08:45:46;24.50;43.20
6986;DHT22;3533;51.246;6.850;2022-07-29T08:48:13;24.50;43.20
6986;DHT22;3533;51.246;6.850;2022-07-29T08:50:39;24.50;43.20
6986;DHT22;3533;51.246;6.850;2022-07-29T08:53:10;24.50;43.20
6986;DHT22;3533;51.246;6.850;2022-07-29T08:55:39;24.50;43.20
6986;DHT22;3533;51.246;6.850;2022-07-29T08:58:06;24.50;43.20
6986;DHT22;3533;51.246;6.850;2022-07-29T09:00:32;24.50;43.20
6986;DHT22;3533;51.246;6.850;2022-07-29T09:03:00;24.50;43.10
6986;DHT22;3533;51.246;6.850;2022-07-29T09:05:27;24.50;43.20
6986;DHT22;3533;51.246;6.850;2022-07-29T09:07:53;24.50;43.20
6986;DHT22;3533;51.246;6.850;2022-07-29T09:10:20;24.50;43.10
6986;DHT22;3533;51.246;6.850;2022-07-29T09:12:46;24.50;43.20
6986;DHT22;3533;51.246;6.850;2022-07-29T09:15:11;24.50;43.10
6986;DHT22;3533;51.246;6.850;2022-07-29T09:17:45;24.50;43.20
6986;DHT22;3533;51.246;6.850;2022-07-29T09:20:16;24.50;43.20
6986;DHT22;3533;51.246;6.850;2022-07-29T09:22:43;24.50;43.20
6986;DHT22;3533;51.246;6.850;2022-07-29T09:25:12;24.50;43.10
6986;DHT22;3533;51.246;6.850;2022-07-29T09:27:37;24.50;43.20
6986;DHT22;3533;51.246;6.850;2022-07-29T09:30:08;24.50;43.20
6986;DHT22;3533;51.246;6.850;2022-07-29T09:33:00;24.50;43.20
6986;DHT22;3533;51.246;6.850;2022-07-29T09:35:27;24.50;43.30
6986;DHT22;3533;51.246;6.850;2022-07-29T09:37:53;24.50;43.40
6986;DHT22;3533;51.246;6.850;2022-07-29T09:40:24;24.50;43.40
6986;DHT22;3533;51.246;6.850;2022-07-29T09:42:51;24.50;43.40
6986;DHT22;3533;51.246;6.850;2022-07-29T09:45:27;24.50;43.50
6986;DHT22;3533;51.246;6.850;2022-07-29T09:47:55;24.50;43.50
6986;DHT22;3533;51.246;6.850;2022-07-29T09:50:35;24.50;43.60
6986;DHT22;3533;51.246;6.850;2022-07-29T09:53:00;24.50;43.60
6986;DHT22;3533;51.246;6.850;2022-07-29T09:55:27;24.50;43.60
6986;DHT22;3533;51.246;6.850;2022-07-29T09:57:53;24.50;43.60
6986;DHT22;3533;51.246;6.850;2022-07-29T10:00:20;24.50;43.60
6986;DHT22;3533;51.246;6.850;2022-07-29T10:02:48;24.50;43.70
6986;DHT22;3533;51.246;6.850;2022-07-29T10:05:18;24.50;43.70
6986;DHT22;3533;51.246;6.850;2022-07-29T10:07:53;24.50;43.70
6986;DHT22;3533;51.246;6.850;2022-07-29T10:10:20;24.50;43.70
6986;DHT22;3533;51.246;6.850;2022-07-29T10:12:54;24.50;43.70
6986;DHT22;3533;51.246;6.850;2022-07-29T10:15:22;24.50;43.60
6986;DHT22;3533;51.246;6.850;2022-07-29T10:17:48;24.50;43.70
6986;DHT22;3533;51.246;6.850;2022-07-29T10:20:15;24.50;43.70
6986;DHT22;3533;51.246;6.850;2022-07-29T10:22:41;24.50;44.50
6986;DHT22;3533;51.246;6.850;2022-07-29T10:25:08;24.50;43.70
6986;DHT22;3533;51.246;6.850;2022-07-29T10:27:35;24.50;43.80
6986;DHT22;3533;51.246;6.850;2022-07-29T10:30:01;24.50;43.70
6986;DHT22;3533;51.246;6.850;2022-07-29T10:32:39;24.50;43.80
6986;DHT22;3533;51.246;6.850;2022-07-29T10:44:23;24.50;43.80
6986;DHT22;3533;51.246;6.850;2022-07-29T10:46:50;24.50;43.90
6986;DHT22;3533;51.246;6.850;2022-07-29T10:49:18;24.50;43.80
6986;DHT22;3533;51.246;6.850;2022-07-29T10:52:08;24.50;43.90
6986;DHT22;3533;51.246;6.850;2022-07-29T10:57:30;24.50;43.90
6986;DHT22;3533;51.246;6.850;2022-07-29T11:05:06;24.50;43.80
6986;DHT22;3533;51.246;6.850;2022-07-29T11:07:35;24.50;43.80
6986;DHT22;3533;51.246;6.850;2022-07-29T11:15:11;24.50;43.90
6986;DHT22;3533;51.246;6.850;2022-07-29T11:20:43;24.50;43.80
6986;DHT22;3533;51.246;6.850;2022-07-29T11:23:32;24.50;43.90
6986;DHT22;3533;51.246;6.850;2022-07-29T11:26:16;24.50;43.80
6986;DHT22;3533;51.246;6.850;2022-07-29T11:29:06;24.50;43.80
6986;DHT22;3533;51.246;6.850;2022-07-29T11:31:41;24.50;43.80
6986;DHT22;3533;51.246;6.850;2022-07-29T11:45:05;24.50;43.80
6986;DHT22;3533;51.246;6.850;2022-07-29T11:47:33;24.50;43.80
6986;DHT22;3533;51.246;6.850;2022-07-29T11:50:02;24.50;43.80
6986;DHT22;3533;51.246;6.850;2022-07-29T11:52:43;24.50;43.80
6986;DHT22;3533;51.246;6.850;2022-07-29T11:55:18;24.50;43.80
6986;DHT22;3533;51.246;6.850;2022-07-29T11:58:00;24.50;43.70
6986;DHT22;3533;51.246;6.850;2022-07-29T12:00:27;24.50;43.70
6986;DHT22;3533;51.246;6.850;2022-07-29T12:02:54;24.50;43.80
6986;DHT22;3533;51.246;6.850;2022-07-29T12:05:20;24.50;43.70
6986;DHT22;3533;51.246;6.850;2022-07-29T12:07:47;24.50;43.70
6986;DHT22;3533;51.246;6.850;2022-07-29T12:10:14;24.50;43.70
6986;DHT22;3533;51.246;6.850;2022-07-29T12:12:39;24.50;43.70
6986;DHT22;3533;51.246;6.850;2022-07-29T12:15:16;24.50;43.60
6986;DHT22;3533;51.246;6.850;2022-07-29T12:17:49;24.50;43.60
6986;DHT22;3533;51.246;6.850;2022-07-29T12:20:23;24.50;43.60
6986;DHT22;3533;51.246;6.850;2022-07-29T12:22:49;24.50;43.50
6986;DHT22;3533;51.246;6.850;2022-07-29T12:25:15;24.50;43.60
6986;DHT22;3533;51.246;6.850;2022-07-29T12:27:42;24.50;43.60
6986;DHT22;3533;51.246;6.850;2022-07-29T12:30:17;24.50;43.60
6986;DHT22;3533;51.246;6.850;2022-07-29T12:32:46;24.50;43.60
6986;DHT22;3533;51.246;6.850;2022-07-29T12:35:14;24.50;43.50
6986;DHT22;3533;51.246;6.850;2022-07-29T12:37:43;24.50;43.50
6986;DHT22;3533;51.246;6.850;2022-07-29T12:40:12;24.50;43.50
6986;DHT22;3533;51.246;6.850;2022-07-29T12:42:39;24.50;43.50
6986;DHT22;3533;51.246;6.850;2022-07-29T12:45:05;24.50;44.20
6986;DHT22;3533;51.246;6.850;2022-07-29T12:47:31;24.50;43.50
6986;DHT22;3533;51.246;6.850;2022-07-29T12:50:13;24.50;43.50
6986;DHT22;3533;51.246;6.850;2022-07-29T12:52:44;24.50;43.40
6986;DHT22;3533;51.246;6.850;2022-07-29T12:55:10;24.50;43.40
6986;DHT22;3533;51.246;6.850;2022-07-29T12:57:51;24.50;43.40
6986;DHT22;3533;51.246;6.850;2022-07-29T13:00:23;24.50;43.30
6986;DHT22;3533;51.246;6.850;2022-07-29T13:02:57;24.50;43.40
6986;DHT22;3533;51.246;6.850;2022-07-29T13:05:24;24.50;43.40
6986;DHT22;3533;51.246;6.850;2022-07-29T13:07:51;24.50;43.50
6986;DHT22;3533;51.246;6.850;2022-07-29T13:10:20;24.50;43.50
6986;DHT22;3533;51.246;6.850;2022-07-29T13:13:06;24.50;43.50
6986;DHT22;3533;51.246;6.850;2022-07-29T13:15:34;24.50;43.60
6986;DHT22;3533;51.246;6.850;2022-07-29T13:18:00;24.50;43.60
6986;DHT22;3533;51.246;6.850;2022-07-29T13:20:28;24.50;43.70
6986;DHT22;3533;51.246;6.850;2022-07-29T13:22:58;24.50;43.60
6986;DHT22;3533;51.246;6.850;2022-07-29T13:25:33;24.50;43.60
6986;DHT22;3533;51.246;6.850;2022-07-29T13:27:59;24.50;43.60
6986;DHT22;3533;51.246;6.850;2022-07-29T13:30:25;24.50;43.60
6986;DHT22;3533;51.246;6.850;2022-07-29T13:32:52;24.50;43.60
6986;DHT22;3533;51.246;6.850;2022-07-29T13:35:18;24.50;43.60
6986;DHT22;3533;51.246;6.850;2022-07-29T13:37:45;24.50;43.70
6986;DHT22;3533;51.246;6.850;2022-07-29T13:40:11;24.50;43.60
6986;DHT22;3533;51.246;6.850;2022-07-29T13:42:37;24.50;43.70
6986;DHT22;3533;51.246;6.850;2022-07-29T13:45:03;24.50;43.60
6986;DHT22;3533;51.246;6.850;2022-07-29T13:47:29;24.50;43.70
6986;DHT22;3533;51.246;6.850;2022-07-29T13:49:55;24.50;43.70
6986;DHT22;3533;51.246;6.850;2022-07-29T13:52:21;24.50;43.80
6986;DHT22;3533;51.246;6.850;2022-07-29T13:54:47;24.50;43.80
6986;DHT22;3533;51.246;6.850;2022-07-29T13:57:13;24.50;43.80
6986;DHT22;3533;51.246;6.850;2022-07-29T13:59:40;24.50;43.70
6986;DHT22;3533;51.246;6.850;2022-07-29T14:02:06;24.50;43.80
6986;DHT22;3533;51.246;6.850;2022-07-29T14:04:32;24.50;43.80
6986;DHT22;3533;51.246;6.850;2022-07-29T14:06:58;24.50;43.80
6986;DHT22;3533;51.246;6.850;2022-07-29T14:09:24;24.50;44.10
6986;DHT22;3533;51.246;6.850;2022-07-29T14:11:49;24.50;43.80
6986;DHT22;3533;51.246;6.850;2022-07-29T14:14:16;24.50;43.80
6986;DHT22;3533;51.246;6.850;2022-07-29T14:16:42;24.50;43.70
6986;DHT22;3533;51.246;6.850;2022-07-29T14:19:08;24.50;43.80
6986;DHT22;3533;51.246;6.850;2022-07-29T14:21:33;24.50;43.80
6986;DHT22;3533;51.246;6.850;2022-07-29T14:24:00;24.50;43.70
6986;DHT22;3533;51.246;6.850;2022-07-29T14:26:26;24.50;43.70
6986;DHT22;3533;51.246;6.850;2022-07-29T14:28:52;24.50;43.70
6986;DHT22;3533;51.246;6.850;2022-07-29T14:31:17;24.50;43.60
6986;DHT22;3533;51.246;6.850;2022-07-29T14:33:43;24.50;43.60
6986;DHT22;3533;51.246;6.850;2022-07-29T14:36:08;24.50;43.50
6986;DHT22;3533;51.246;6.850;2022-07-29T14:38:35;24.50;43.50
6986;DHT22;3533;51.246;6.850;2022-07-29T14:41:01;24.50;43.40
6986;DHT22;3533;51.246;6.850;2022-07-29T14:43:26;24.50;43.40
6986;DHT22;3533;51.246;6.850;2022-07-29T14:45:52;24.50;43.40
6986;DHT22;3533;51.246;6.850;2022-07-29T14:48:18;24.60;43.40
6986;DHT22;3533;51.246;6.850;2022-07-29T14:50:43;24.50;43.20
6986;DHT22;3533;51.246;6.850;2022-07-29T14:53:09;24.60;43.30
6986;DHT22;3533;51.246;6.850;2022-07-29T14:55:37;24.60;43.30
6986;DHT22;3533;51.246;6.850;2022-07-29T14:58:03;24.60;43.30
6986;DHT22;3533;51.246;6.850;2022-07-29T15:00:28;24.70;43.30
6986;DHT22;3533;51.246;6.850;2022-07-29T15:02:59;24.60;43.40
6986;DHT22;3533;51.246;6.850;2022-07-29T15:05:25;24.70;43.50
6986;DHT22;3533;51.246;6.850;2022-07-29T15:07:52;24.70;43.60
6986;DHT22;3533;51.246;6.850;2022-07-29T15:10:18;24.70;43.80
6986;DHT22;3533;51.246;6.850;2022-07-29T15:12:44;24.70;43.70
6986;DHT22;3533;51.246;6.850;2022-07-29T15:15:09;24.70;43.80
6986;DHT22;3533;51.246;6.850;2022-07-29T15:17:35;24.70;43.80
6986;DHT22;3533;51.246;6.850;2022-07-29T15:20:01;24.70;43.80
6986;DHT22;3533;51.246;6.850;2022-07-29T15:22:26;24.70;44.70
6986;DHT22;3533;51.246;6.850;2022-07-29T15:24:52;24.70;43.90
6986;DHT22;3533;51.246;6.850;2022-07-29T15:27:18;24.70;44.00
6986;DHT22;3533;51.246;6.850;2022-07-29T15:29:44;24.70;43.90
6986;DHT22;3533;51.246;6.850;2022-07-29T15:32:10;24.70;44.10
6986;DHT22;3533;51.246;6.850;2022-07-29T15:34:37;24.70;44.00
6986;DHT22;3533;51.246;6.850;2022-07-29T15:37:04;24.70;44.00
6986;DHT22;3533;51.246;6.850;2022-07-29T15:39:29;24.70;44.00
6986;DHT22;3533;51.246;6.850;2022-07-29T15:41:55;24.70;44.10
6986;DHT22;3533;51.246;6.850;2022-07-29T15:44:21;24.70;44.10
6986;DHT22;3533;51.246;6.850;2022-07-29T15:46:48;24.70;44.10
6986;DHT22;3533;51.246;6.850;2022-07-29T15:49:30;24.70;44.20
6986;DHT22;3533;51.246;6.850;2022-07-29T15:51:57;24.70;44.20
6986;DHT22;3533;51.246;6.850;2022-07-29T15:54:23;24.70;44.20
6986;DHT22;3533;51.246;6.850;2022-07-29T15:56:49;24.70;44.20
6986;DHT22;3533;51.246;6.850;2022-07-29T15:59:14;24.70;44.20
6986;DHT22;3533;51.246;6.850;2022-07-29T16:01:40;24.70;44.20
6986;DHT22;3533;51.246;6.850;2022-07-29T16:04:06;24.70;44.20
6986;DHT22;3533;51.246;6.850;2022-07-29T16:06:32;24.70;44.30
6986;DHT22;3533;51.246;6.850;2022-07-29T16:08:57;24.70;44.20
6986;DHT22;3533;51.246;6.850;2022-07-29T16:11:24;24.70;44.20
6986;DHT22;3533;51.246;6.850;2022-07-29T16:13:50;24.70;44.20
6986;DHT22;3533;51.246;6.850;2022-07-29T16:16:16;24.70;44.30
6986;DHT22;3533;51.246;6.850;2022-07-29T16:18:43;24.70;44.30
6986;DHT22;3533;51.246;6.850;2022-07-29T16:21:09;24.70;44.30
6986;DHT22;3533;51.246;6.850;2022-07-29T16:23:34;24.70;44.30
6986;DHT22;3533;51.246;6.850;2022-07-29T16:26:00;24.70;44.30
6986;DHT22;3533;51.246;6.850;2022-07-29T16:28:26;24.70;44.30
6986;DHT22;3533;51.246;6.850;2022-07-29T16:30:51;24.70;44.30
6986;DHT22;3533;51.246;6.850;2022-07-29T16:33:17;24.70;44.30
6986;DHT22;3533;51.246;6.850;2022-07-29T16:35:42;24.70;44.40
6986;DHT22;3533;51.246;6.850;2022-07-29T16:38:08;24.70;44.30
6986;DHT22;3533;51.246;6.850;2022-07-29T16:40:33;24.70;44.30
6986;DHT22;3533;51.246;6.850;2022-07-29T16:42:59;24.70;44.30
6986;DHT22;3533;51.246;6.850;2022-07-29T16:45:25;24.70;44.30
6986;DHT22;3533;51.246;6.850;2022-07-29T16:47:53;24.70;44.30
6986;DHT22;3533;51.246;6.850;2022-07-29T16:50:19;24.70;44.40
6986;DHT22;3533;51.246;6.850;2022-07-29T16:52:45;24.70;45.20
6986;DHT22;3533;51.246;6.850;2022-07-29T16:55:10;24.70;44.40
6986;DHT22;3533;51.246;6.850;2022-07-29T16:57:36;24.70;44.30
6986;DHT22;3533;51.246;6.850;2022-07-29T17:00:03;24.70;45.20
6986;DHT22;3533;51.246;6.850;2022-07-29T17:02:29;24.70;44.30
6986;DHT22;3533;51.246;6.850;2022-07-29T17:04:55;24.70;44.40
6986;DHT22;3533;51.246;6.850;2022-07-29T17:07:20;24.70;44.40